Edgerton, Minnesota
Current Conditions -  °F | °C
As of 1:54 AM on Monday 24 Nov 2014 (Local Time) from KPQN Reporting Station
Overcast Overcast  
Wind Chill: -15°   Ceiling: 1800
Heat Index: -7°   Visibility: 10mi
Dew Point: -10°   Wind: 15mph
Humidity: 80%   Direction: 330°NNW
Pressure: 29.47"   Gusts: 35mph
Location:  43.87°N, 96.13°W
Report Text: KPQN 240754Z AUTO 33013G30KT 10SM OVC018 M07/M10 A2947 RMK AO2
Loading
Personal Weather Stations






























Interactive Weather Map New forecast layout! Learn more

10-Day Weather Forecast

Advertisements
Track Severe Weather on mobile